Napaskiak, Alaska
Current Conditions -  °F | °C
As of 6:53 AM on Friday 24 Oct 2014 (Local Time) from PABE Reporting Station
Clear Clear  
Wind Chill: 15°   Ceiling: Unl
Heat Index: 24°   Visibility: 10mi
Dew Point: 24°   Wind: 8mph
Humidity: 100%   Direction: 250°WSW
Pressure: 29.94"   Gusts: NA
Location:  60.7494°N, 161.727°W
Report Text: PABE 241453Z 25007KT 10SM CLR M04/M04 A2994 RMK AO2 SLP141 T10441044 51019 $
Loading
Personal Weather Stations






























Interactive Weather Map New forecast layout! Learn more

10-Day Weather Forecast

Advertisements
Track Severe Weather on mobile